Time;durP1;ratioP1;P1;durP2;ratioP2;P2;SDS_P1;SDS_P2;PMS_P1;PMS_P2;Temp;Humidity;BMP_temperature;BMP_pressure;BME280_temperature;BME280_humidity;BME280_pressure;Samples;Min_cycle;Max_cycle;Signal;HPM_P1;HPM_P2
2021/03/14 00:00:08;;;;;;;2.10;1.80;;;;;;;4.69;76.36;98477.06;5052474;28;20183;-75
2021/03/14 00:02:33;;;;;;;2.80;1.10;;;;;;;4.74;76.70;98484.19;5052856;28;20182;-76
2021/03/14 00:04:59;;;;;;;1.53;0.73;;;;;;;4.75;76.46;98488.47;5052698;28;20254;-76
2021/03/14 00:07:24;;;;;;;28.97;3.23;;;;;;;4.74;76.03;98500.41;5052605;28;20206;-74
2021/03/14 00:09:49;;;;;;;0.33;0.33;;;;;;;4.80;76.11;98498.38;5052761;28;20589;-75
2021/03/14 00:12:15;;;;;;;0.30;0.30;;;;;;;4.81;75.19;98500.75;5052651;28;20210;-74
2021/03/14 00:14:40;;;;;;;16.67;1.37;;;;;;;4.80;76.08;98517.31;5052536;28;20210;-75
2021/03/14 00:17:06;;;;;;;0.57;0.47;;;;;;;4.74;76.32;98497.72;5052332;28;20187;-75
2021/03/14 00:19:31;;;;;;;1.17;1.07;;;;;;;4.78;76.73;98506.81;5052508;28;20187;-75
2021/03/14 00:21:56;;;;;;;0.27;0.27;;;;;;;4.75;76.35;98515.53;5052307;28;20584;-76
2021/03/14 00:24:22;;;;;;;1.33;0.70;;;;;;;4.77;76.74;98514.13;5052458;28;20209;-76
2021/03/14 00:26:47;;;;;;;0.77;0.73;;;;;;;4.77;76.72;98527.66;5051857;28;20210;-75
2021/03/14 00:29:13;;;;;;;0.50;0.50;;;;;;;4.73;77.17;98537.50;5034405;28;20214;-75
2021/03/14 00:31:38;;;;;;;0.30;0.30;;;;;;;4.75;76.91;98531.75;5052231;28;20240;-76
2021/03/14 00:34:03;;;;;;;0.63;0.63;;;;;;;4.71;77.49;98553.25;5052171;28;20175;-75
2021/03/14 00:36:29;;;;;;;22.63;1.57;;;;;;;4.73;77.06;98536.69;5051760;28;20167;-76
2021/03/14 00:38:54;;;;;;;3.47;0.50;;;;;;;4.72;77.26;98521.59;5051909;28;20183;-75
2021/03/14 00:41:20;;;;;;;0.13;0.13;;;;;;;4.71;77.68;98534.31;5052061;28;20262;-75
2021/03/14 00:43:46;;;;;;;0.20;0.20;;;;;;;4.71;77.41;98536.22;5051991;28;20267;-75
2021/03/14 00:46:11;;;;;;;0.53;0.53;;;;;;;4.69;77.49;98541.16;5051609;28;20756;-76
2021/03/14 00:48:36;;;;;;;0.30;0.30;;;;;;;4.75;77.01;98540.66;5051962;28;20175;-75
2021/03/14 00:51:02;;;;;;;0.73;0.73;;;;;;;4.74;77.37;98546.41;5052770;28;20175;-75
2021/03/14 00:53:27;;;;;;;1.70;0.80;;;;;;;4.74;77.73;98563.44;5071906;28;20231;-76
2021/03/14 00:55:53;;;;;;;1.77;1.67;;;;;;;4.81;77.13;98554.06;5071761;28;20626;-76
2021/03/14 00:58:19;;;;;;;1.90;0.60;;;;;;;4.80;77.47;98547.84;5071478;28;20182;-75
2021/03/14 01:00:44;;;;;;;0.87;0.87;;;;;;;4.81;77.17;98548.66;5071666;28;20663;-74
2021/03/14 01:03:09;;;;;;;4.97;1.50;;;;;;;4.80;77.33;98563.28;5071519;28;20186;-75
2021/03/14 01:05:35;;;;;;;1.10;1.10;;;;;;;4.83;77.37;98554.53;5071072;28;20508;-75
2021/03/14 01:08:00;;;;;;;0.73;0.70;;;;;;;4.78;77.70;98548.19;5071162;28;20181;-75
2021/03/14 01:10:26;;;;;;;9.03;1.07;;;;;;;4.81;77.43;98578.41;5054001;28;20648;-76
2021/03/14 01:12:51;;;;;;;4.53;1.87;;;;;;;4.84;77.39;98570.44;5073497;28;20178;-77
2021/03/14 01:15:17;;;;;;;0.60;0.60;;;;;;;4.88;76.95;98565.19;5072977;28;20175;-76
2021/03/14 01:17:42;;;;;;;0.73;0.73;;;;;;;4.87;77.12;98569.78;5071994;28;20224;-77
2021/03/14 01:20:18;;;;;;;0.50;0.50;;;;;;;4.90;76.77;98571.06;5071119;28;20185;-76
2021/03/14 01:22:44;;;;;;;2.80;1.37;;;;;;;4.89;76.34;98583.00;5071089;28;20177;-76
2021/03/14 01:25:10;;;;;;;0.23;0.23;;;;;;;4.89;76.99;98583.00;5071210;28;20229;-76
2021/03/14 01:27:35;;;;;;;0.70;0.70;;;;;;;4.86;77.42;98587.13;5070833;28;20626;-76
2021/03/14 01:30:06;;;;;;;0.57;0.57;;;;;;;4.89;76.54;98594.63;5053011;28;20201;-76
2021/03/14 01:32:31;;;;;;;0.50;0.50;;;;;;;4.96;76.22;98610.38;5071250;28;20167;-76
2021/03/14 01:34:56;;;;;;;0.47;0.47;;;;;;;4.91;76.49;98592.38;5070925;28;20711;-76
2021/03/14 01:37:24;;;;;;;4.60;0.93;;;;;;;4.94;76.06;98607.22;5070756;28;20187;-76
2021/03/14 01:39:49;;;;;;;0.40;0.40;;;;;;;4.95;76.50;98596.06;5070490;28;20167;-76
2021/03/14 01:42:27;;;;;;;0.67;0.33;;;;;;;4.97;76.40;98598.44;5070829;28;20321;-76
2021/03/14 01:44:52;;;;;;;1.70;1.50;;;;;;;4.97;76.49;98601.94;5070898;28;20220;-75
2021/03/14 01:47:18;;;;;;;0.83;0.47;;;;;;;4.97;76.39;98623.59;5070355;28;20197;-76
2021/03/14 01:49:44;;;;;;;0.87;0.33;;;;;;;4.99;76.30;98620.56;5052731;28;20269;-77
2021/03/14 01:52:09;;;;;;;0.20;0.20;;;;;;;4.94;76.99;98620.75;5070816;28;20182;-76
2021/03/14 01:54:35;;;;;;;1.23;0.57;;;;;;;4.93;77.11;98619.16;5070854;28;20182;-76
2021/03/14 01:57:00;;;;;;;0.83;0.83;;;;;;;4.90;77.10;98617.06;5070417;28;20166;-77
2021/03/14 01:59:27;;;;;;;0.30;0.30;;;;;;;4.92;77.02;98628.34;5071056;28;20190;-77
2021/03/14 02:01:53;;;;;;;6.37;2.60;;;;;;;4.94;76.98;98634.25;5070449;28;20197;-77
2021/03/14 02:04:18;;;;;;;0.20;0.20;;;;;;;4.95;77.06;98622.31;5070581;28;20641;-76
2021/03/14 02:06:43;;;;;;;1.23;1.07;;;;;;;4.90;76.78;98625.97;5070478;28;20190;-76
2021/03/14 02:09:09;;;;;;;1.90;0.93;;;;;;;4.89;77.39;98634.41;5070832;28;20617;-76
2021/03/14 02:11:38;;;;;;;0.50;0.50;;;;;;;4.92;76.44;98636.47;5070531;28;20175;-75
2021/03/14 02:14:04;;;;;;;0.27;0.27;;;;;;;4.92;77.05;98637.28;5070466;28;20328;-77
2021/03/14 02:16:38;;;;;;;1.80;1.37;;;;;;;4.96;76.42;98648.28;5052515;28;20663;-76
2021/03/14 02:19:07;;;;;;;0.87;0.87;;;;;;;4.93;77.12;98643.50;5074479;28;20284;-77
2021/03/14 02:21:34;;;;;;;0.70;0.70;;;;;;;4.89;77.38;98654.13;5074602;28;20304;-76
2021/03/14 02:24:02;;;;;;;9.23;1.23;;;;;;;4.88;77.43;98660.66;5075001;28;20609;-76
2021/03/14 02:26:33;;;;;;;0.37;0.37;;;;;;;4.87;77.48;98652.88;5069959;28;20197;-76
2021/03/14 02:28:59;;;;;;;15.40;3.00;;;;;;;4.90;76.89;98668.47;5036301;28;20202;-76
2021/03/14 02:31:27;;;;;;;1.27;1.17;;;;;;;4.88;76.99;98668.00;5054571;28;20178;-76
2021/03/14 02:34:24;;;;;;;0.23;0.23;;;;;;;4.86;77.65;98671.00;5036243;28;20258;-76
2021/03/14 02:36:52;;;;;;;0.30;0.30;;;;;;;4.78;78.08;98675.31;5053866;28;20175;-76
2021/03/14 02:39:22;;;;;;;0.77;0.50;;;;;;;4.77;77.73;98673.72;5053733;28;20627;-76
2021/03/14 02:41:51;;;;;;;9.03;1.90;;;;;;;4.80;77.43;98661.47;5054062;28;20171;-76
2021/03/14 02:44:18;;;;;;;1.63;1.37;;;;;;;4.81;77.38;98670.38;5036147;28;20610;-76
2021/03/14 02:46:44;;;;;;;0.47;0.47;;;;;;;4.76;78.05;98672.09;5053475;28;20207;-76
2021/03/14 02:49:11;;;;;;;0.20;0.20;;;;;;;4.76;78.05;98666.69;5053989;28;20217;-76
2021/03/14 02:51:39;;;;;;;0.73;0.67;;;;;;;4.74;78.06;98679.75;5054069;28;20581;-76
2021/03/14 02:54:06;;;;;;;5.40;0.50;;;;;;;4.71;78.48;98679.59;5054232;28;20187;-76
2021/03/14 02:56:32;;;;;;;5.70;1.37;;;;;;;4.67;78.63;98690.25;5053791;28;20175;-76
2021/03/14 02:58:59;;;;;;;0.73;0.73;;;;;;;4.69;79.09;98695.34;5053841;28;20684;-77
2021/03/14 03:01:25;;;;;;;4.23;1.87;;;;;;;4.80;77.66;98693.13;5053844;28;20183;-76
2021/03/14 03:03:51;;;;;;;1.47;1.37;;;;;;;4.81;77.89;98692.03;5053803;28;20319;-76
2021/03/14 03:06:17;;;;;;;0.40;0.40;;;;;;;4.77;77.94;98702.66;5053199;28;20211;-75
2021/03/14 03:08:44;;;;;;;0.40;0.40;;;;;;;4.74;78.34;98709.50;5053692;28;20175;-76
2021/03/14 03:11:14;;;;;;;0.10;0.10;;;;;;;4.73;79.13;98720.66;5053947;28;20611;-76
2021/03/14 03:13:40;;;;;;;1.37;1.27;;;;;;;4.72;79.05;98732.56;5053635;28;20175;-77
2021/03/14 03:16:10;;;;;;;0.23;0.23;;;;;;;4.68;79.26;98732.41;5053417;28;20627;-77
2021/03/14 03:18:36;;;;;;;0.23;0.20;;;;;;;4.70;79.05;98726.69;5053944;28;20172;-76
2021/03/14 03:21:02;;;;;;;1.60;1.20;;;;;;;4.68;79.52;98740.53;5053364;28;20537;-77
2021/03/14 03:23:27;;;;;;;0.73;0.73;;;;;;;4.70;79.16;98724.78;5053354;28;20176;-76
2021/03/14 03:25:53;;;;;;;0.63;0.63;;;;;;;4.72;78.80;98744.19;5053225;28;20249;-76
2021/03/14 03:28:18;;;;;;;1.13;0.53;;;;;;;4.72;78.62;98741.50;5052639;28;20187;-77
2021/03/14 03:30:44;;;;;;;2.87;1.10;;;;;;;4.73;78.23;98743.06;5053589;28;20216;-75
2021/03/14 03:33:10;;;;;;;0.30;0.30;;;;;;;4.71;79.43;98764.25;5053144;28;20270;-77
2021/03/14 03:35:36;;;;;;;6.27;0.17;;;;;;;4.69;79.24;98755.66;5053107;28;20260;-75
2021/03/14 03:38:01;;;;;;;0.60;0.57;;;;;;;4.68;79.30;98772.19;5052455;28;20300;-76
2021/03/14 03:40:31;;;;;;;0.20;0.17;;;;;;;4.75;78.85;98767.09;5053197;28;20176;-76
2021/03/14 03:43:10;;;;;;;1.73;0.90;;;;;;;4.73;79.51;98775.53;5035026;28;20806;-75
2021/03/14 03:45:37;;;;;;;0.77;0.77;;;;;;;4.70;79.35;98778.88;5035208;28;20261;-76
2021/03/14 03:48:05;;;;;;;1.53;1.03;;;;;;;4.70;79.60;98784.28;5052482;28;20211;-76
2021/03/14 03:50:31;;;;;;;1.73;1.30;;;;;;;4.69;79.44;98777.28;5052971;28;20535;-76
2021/03/14 03:52:58;;;;;;;0.23;0.10;;;;;;;4.69;80.53;98790.81;5052950;28;20236;-76
2021/03/14 03:55:25;;;;;;;1.20;1.03;;;;;;;4.68;79.47;98805.44;5052920;28;20654;-77
2021/03/14 03:57:51;;;;;;;8.87;1.80;;;;;;;4.67;79.43;98798.44;5052187;28;20875;-75
2021/03/14 04:00:19;;;;;;;3.10;1.40;;;;;;;4.64;80.49;98807.19;5052191;28;20203;-76
2021/03/14 04:02:46;;;;;;;0.20;0.20;;;;;;;4.63;80.26;98819.13;5052716;28;20171;-76
2021/03/14 04:05:13;;;;;;;10.70;0.97;;;;;;;4.60;81.33;98833.25;5034758;28;20198;-76
2021/03/14 04:07:42;;;;;;;0.10;0.10;;;;;;;4.54;82.16;98825.59;5052157;28;20205;-75
2021/03/14 04:10:10;;;;;;;1.00;1.00;;;;;;;4.47;82.51;98829.53;5052678;28;20175;-76
2021/03/14 04:12:42;;;;;;;0.77;0.77;;;;;;;4.44;83.30;98840.16;5056478;28;20182;-77
2021/03/14 04:15:09;;;;;;;0.27;0.20;;;;;;;4.38;83.87;98838.72;5072646;28;20181;-76
2021/03/14 04:17:37;;;;;;;26.83;2.70;;;;;;;4.35;83.61;98852.84;5072532;28;20590;-77
2021/03/14 04:20:04;;;;;;;0.73;0.40;;;;;;;4.35;83.68;98858.25;5072604;28;20429;-75
2021/03/14 04:22:32;;;;;;;8.57;1.30;;;;;;;4.34;84.48;98870.16;5072418;28;20257;-76
2021/03/14 04:25:00;;;;;;;0.33;0.33;;;;;;;4.26;85.36;98850.09;5072381;28;20166;-76
2021/03/14 04:27:27;;;;;;;0.40;0.40;;;;;;;4.27;85.08;98880.63;5072224;28;20206;-76
2021/03/14 04:29:54;;;;;;;5.17;0.53;;;;;;;4.22;86.16;98886.97;5072048;28;20186;-77
2021/03/14 04:32:21;;;;;;;1.07;0.83;;;;;;;4.17;86.93;98887.06;5072246;28;20174;-77
2021/03/14 04:34:48;;;;;;;13.00;1.50;;;;;;;4.14;87.80;98909.31;5072243;28;20214;-75
2021/03/14 04:37:14;;;;;;;0.47;0.47;;;;;;;3.78;88.90;98914.75;5071970;28;20421;-76
2021/03/14 04:39:40;;;;;;;0.27;0.27;;;;;;;3.52;89.25;98909.09;5071858;28;20645;-76
2021/03/14 04:42:06;;;;;;;0.97;0.97;;;;;;;3.32;90.27;98914.88;5071906;28;20268;-77
2021/03/14 04:44:32;;;;;;;5.50;0.63;;;;;;;3.19;91.37;98914.63;5071870;28;20908;-76
2021/03/14 04:46:58;;;;;;;0.53;0.37;;;;;;;3.14;92.13;98930.09;5071480;28;21016;-75
2021/03/14 04:49:24;;;;;;;0.37;0.37;;;;;;;3.12;92.94;98924.19;5071850;28;20429;-77
2021/03/14 04:51:49;;;;;;;0.30;0.30;;;;;;;3.14;93.38;98927.38;5071979;28;20529;-77
2021/03/14 04:54:16;;;;;;;0.30;0.30;;;;;;;3.14;93.71;98938.97;5071851;28;20659;-77
2021/03/14 04:56:42;;;;;;;0.20;0.20;;;;;;;3.24;93.90;98936.09;5071458;28;20174;-76
2021/03/14 04:59:11;;;;;;;0.50;0.40;;;;;;;3.55;93.20;98938.19;5072053;28;20424;-75
2021/03/14 05:01:38;;;;;;;0.30;0.30;;;;;;;3.71;92.02;98949.44;5071757;28;20182;-75
2021/03/14 05:04:06;;;;;;;0.00;0.00;;;;;;;3.73;92.48;98958.03;5071659;28;20421;-76
2021/03/14 05:06:33;;;;;;;0.77;0.73;;;;;;;3.69;92.64;98954.34;5071145;28;20475;-76
2021/03/14 05:08:59;;;;;;;5.50;1.77;;;;;;;3.60;92.31;98959.66;5071853;28;20253;-78
2021/03/14 05:11:25;;;;;;;0.50;0.50;;;;;;;3.50;92.97;98959.88;5071380;28;21125;-75
2021/03/14 05:13:51;;;;;;;0.60;0.60;;;;;;;3.39;93.11;98963.88;5071606;28;20465;-78
2021/03/14 05:16:18;;;;;;;0.20;0.20;;;;;;;3.32;93.35;98975.06;5071315;28;20183;-77
2021/03/14 05:18:44;;;;;;;0.77;0.77;;;;;;;3.29;94.09;98978.38;5071504;28;20200;-79
2021/03/14 05:21:11;;;;;;;0.87;0.87;;;;;;;3.21;94.73;98998.78;5071441;28;20581;-78
2021/03/14 05:23:37;;;;;;;5.97;1.13;;;;;;;3.17;95.37;98992.34;5071300;28;20413;-78
2021/03/14 05:26:04;;;;;;;0.53;0.50;;;;;;;3.19;95.39;98997.47;5071127;28;20609;-79
2021/03/14 05:28:31;;;;;;;0.50;0.50;;;;;;;3.15;95.59;99002.63;5070987;28;20435;-78
2021/03/14 05:30:56;;;;;;;0.30;0.30;;;;;;;3.15;94.37;99015.34;5071469;28;21067;-77
2021/03/14 05:33:22;;;;;;;0.10;0.10;;;;;;;3.01;94.46;99014.50;5071261;28;20424;-77
2021/03/14 05:35:47;;;;;;;0.00;0.00;;;;;;;2.86;94.83;99016.38;5071236;28;20649;-78
2021/03/14 05:38:13;;;;;;;0.00;0.00;;;;;;;2.77;95.14;99028.94;5070496;28;20175;-78
2021/03/14 05:40:39;;;;;;;0.20;0.10;;;;;;;2.74;95.63;99029.50;5071548;28;20178;-78
2021/03/14 05:43:05;;;;;;;0.00;0.00;;;;;;;2.69;96.16;99043.88;5071070;28;20962;-78
2021/03/14 05:45:30;;;;;;;0.30;0.30;;;;;;;2.63;96.16;99044.28;5071012;28;20257;-79
2021/03/14 05:47:57;;;;;;;0.10;0.10;;;;;;;2.61;96.62;99041.06;5070731;28;20183;-77
2021/03/14 05:50:25;;;;;;;0.00;0.00;;;;;;;2.63;96.93;99049.66;5070950;28;20701;-78
2021/03/14 05:52:51;;;;;;;0.00;0.00;;;;;;;2.68;97.25;99044.97;5070122;28;20904;-78
2021/03/14 05:55:19;;;;;;;0.60;0.30;;;;;;;2.70;97.10;99055.47;5070866;28;20420;-78
2021/03/14 05:57:46;;;;;;;0.20;0.20;;;;;;;2.77;97.23;99050.53;5062739;28;20222;-79
2021/03/14 06:00:15;;;;;;;0.57;0.57;;;;;;;2.88;96.96;99056.53;5051086;28;20834;-79
2021/03/14 06:02:44;;;;;;;7.53;0.50;;;;;;;2.95;96.83;99065.84;5050940;28;20509;-77
2021/03/14 06:05:13;;;;;;;8.03;2.30;;;;;;;3.01;96.97;99063.06;5032878;28;20441;-77
2021/03/14 06:07:39;;;;;;;1.03;1.03;;;;;;;3.10;96.79;99069.41;5050555;28;20262;-79
2021/03/14 06:10:04;;;;;;;0.93;0.93;;;;;;;3.16;96.66;99079.00;5050999;28;21457;-77
2021/03/14 06:12:32;;;;;;;0.10;0.10;;;;;;;3.19;96.41;99070.34;5050873;28;20651;-79
2021/03/14 06:14:58;;;;;;;1.43;0.90;;;;;;;3.25;95.76;99069.94;5050771;28;20172;-78
2021/03/14 06:17:24;;;;;;;0.50;0.50;;;;;;;3.34;95.14;99074.66;5050573;28;20931;-77
2021/03/14 06:19:49;;;;;;;0.80;0.80;;;;;;;3.41;94.77;99073.16;5050946;28;20183;-78
2021/03/14 06:22:25;;;;;;;0.83;0.83;;;;;;;3.50;93.93;99081.38;5050949;28;20759;-75
2021/03/14 06:24:52;;;;;;;0.27;0.27;;;;;;;3.53;94.14;99086.97;5050794;28;20209;-77
2021/03/14 06:27:28;;;;;;;24.93;1.30;;;;;;;3.61;93.72;99090.88;5050443;28;20469;-78
2021/03/14 06:29:54;;;;;;;0.30;0.20;;;;;;;3.65;93.61;99100.00;5032860;28;20492;-78
2021/03/14 06:32:19;;;;;;;0.10;0.10;;;;;;;3.68;93.84;99112.91;5050740;28;20258;-78
2021/03/14 06:34:44;;;;;;;0.30;0.30;;;;;;;3.75;93.03;99118.69;5050816;28;20175;-77
2021/03/14 06:37:14;;;;;;;0.57;0.57;;;;;;;3.79;92.77;99122.41;5050405;28;20184;-77
2021/03/14 06:39:42;;;;;;;1.57;1.37;;;;;;;3.84;91.99;99141.22;5050363;28;20578;-77
2021/03/14 06:42:07;;;;;;;0.20;0.20;;;;;;;3.89;92.01;99140.31;5050660;28;20453;-78
2021/03/14 06:44:35;;;;;;;0.10;0.10;;;;;;;3.95;91.28;99141.03;5050934;28;20468;-77
2021/03/14 06:47:01;;;;;;;0.63;0.63;;;;;;;3.97;91.53;99145.03;5050080;28;20253;-78
2021/03/14 06:49:29;;;;;;;1.90;0.70;;;;;;;3.99;91.13;99155.53;5050574;28;20457;-77
2021/03/14 06:51:59;;;;;;;0.77;0.77;;;;;;;4.02;90.59;99161.16;5050751;28;20448;-77
2021/03/14 06:54:28;;;;;;;5.60;2.87;;;;;;;4.03;90.19;99164.66;5050624;28;20179;-77
2021/03/14 06:57:09;;;;;;;1.33;1.13;;;;;;;4.04;89.59;99175.16;5050282;28;20164;-77
2021/03/14 06:59:39;;;;;;;0.47;0.47;;;;;;;4.03;90.42;99173.56;5050665;28;20182;-77
2021/03/14 07:02:08;;;;;;;10.43;1.80;;;;;;;4.07;89.18;99182.69;5050419;28;20493;-77
2021/03/14 07:04:55;;;;;;;0.43;0.20;;;;;;;4.06;89.65;99183.00;5035527;28;20433;-76
2021/03/14 07:07:29;;;;;;;5.00;0.53;;;;;;;4.05;88.96;99192.16;5053554;28;20675;-76
2021/03/14 07:10:06;;;;;;;0.20;0.20;;;;;;;4.09;88.49;99217.50;5054145;28;20402;-78
2021/03/14 07:12:33;;;;;;;1.43;1.43;;;;;;;4.07;88.64;99223.22;5053952;28;20167;-78
2021/03/14 07:15:19;;;;;;;0.13;0.13;;;;;;;4.10;88.28;99229.94;5037134;28;20179;-77
2021/03/14 07:18:00;;;;;;;0.50;0.50;;;;;;;4.12;88.51;99235.84;5056724;28;20233;-77
2021/03/14 07:20:31;;;;;;;0.33;0.33;;;;;;;4.11;88.97;99240.44;5055089;28;20536;-77
2021/03/14 07:23:08;;;;;;;0.47;0.47;;;;;;;4.14;88.74;99241.72;5053792;28;20424;-78
2021/03/14 07:25:40;;;;;;;0.20;0.20;;;;;;;4.17;88.66;99251.94;5053695;28;20254;-78
2021/03/14 07:28:06;;;;;;;0.40;0.40;;;;;;;4.21;87.72;99269.19;5053011;28;20171;-77
2021/03/14 07:30:32;;;;;;;1.47;1.13;;;;;;;4.23;87.42;99268.88;5061126;28;20537;-77
2021/03/14 07:32:58;;;;;;;0.20;0.20;;;;;;;4.25;87.77;99277.50;5073483;28;20167;-76
2021/03/14 07:35:24;;;;;;;0.57;0.57;;;;;;;4.23;88.15;99285.91;5073234;28;20178;-78
2021/03/14 07:37:52;;;;;;;0.53;0.53;;;;;;;4.25;88.04;99283.72;5072439;28;20170;-78
2021/03/14 07:40:20;;;;;;;0.47;0.47;;;;;;;4.24;87.84;99287.50;5073237;28;20498;-77
2021/03/14 07:42:46;;;;;;;0.73;0.70;;;;;;;4.25;87.65;99288.31;5073158;28;20163;-77
2021/03/14 07:45:18;;;;;;;0.30;0.30;;;;;;;4.29;87.23;99294.72;5073274;28;20175;-77
2021/03/14 07:47:47;;;;;;;0.37;0.37;;;;;;;4.30;87.11;99313.34;5072668;28;20516;-77
2021/03/14 07:50:18;;;;;;;0.77;0.77;;;;;;;4.33;86.81;99311.94;5073439;28;20175;-77
2021/03/14 07:52:44;;;;;;;0.20;0.20;;;;;;;4.35;86.69;99312.47;5073121;28;20170;-76
2021/03/14 07:55:27;;;;;;;2.03;0.90;;;;;;;4.34;86.63;99327.91;5055183;28;20274;-77
2021/03/14 07:57:53;;;;;;;0.07;0.07;;;;;;;4.34;86.64;99329.75;5072746;28;20622;-77
2021/03/14 08:00:29;;;;;;;1.77;1.43;;;;;;;4.34;86.51;99337.88;5072819;28;20249;-77
2021/03/14 08:02:56;;;;;;;0.30;0.30;;;;;;;4.35;86.24;99334.91;5072804;28;20261;-77
2021/03/14 08:05:37;;;;;;;0.67;0.40;;;;;;;4.39;85.61;99356.72;5072840;28;20178;-77
2021/03/14 08:08:06;;;;;;;0.20;0.20;;;;;;;4.39;85.86;99349.41;5072285;28;20177;-77
2021/03/14 08:10:40;;;;;;;0.57;0.47;;;;;;;4.41;86.22;99354.53;5072468;28;20183;-78
2021/03/14 08:13:12;;;;;;;5.67;0.97;;;;;;;4.45;85.41;99369.06;5072720;28;20174;-77
2021/03/14 08:15:37;;;;;;;0.10;0.10;;;;;;;4.48;85.76;99371.16;5071635;28;20174;-77
2021/03/14 08:18:04;;;;;;;0.83;0.83;;;;;;;4.50;85.17;99382.50;5072030;28;20416;-77
2021/03/14 08:20:45;;;;;;;0.20;0.10;;;;;;;4.53;84.72;99376.50;5054456;28;20630;-78
2021/03/14 08:23:15;;;;;;;0.43;0.43;;;;;;;4.55;84.91;99385.09;5072392;28;20224;-75
2021/03/14 08:25:43;;;;;;;1.30;0.93;;;;;;;4.59;84.50;99390.72;5072355;28;20202;-75
2021/03/14 08:28:30;;;;;;;0.30;0.30;;;;;;;4.65;84.10;99384.13;5053724;28;20698;-74
2021/03/14 08:31:03;;;;;;;0.80;0.80;;;;;;;4.69;84.10;99391.34;5072280;28;20175;-75
2021/03/14 08:33:30;;;;;;;2.30;1.40;;;;;;;4.75;83.06;99389.34;5072154;28;20855;-77
2021/03/14 08:36:07;;;;;;;0.80;0.80;;;;;;;4.83;83.97;99402.19;5072090;28;20676;-76
2021/03/14 08:38:49;;;;;;;1.00;0.57;;;;;;;4.86;83.05;99401.59;5071559;28;20417;-76
2021/03/14 08:41:30;;;;;;;5.03;0.50;;;;;;;4.97;83.28;99410.31;5072321;28;20526;-76
2021/03/14 08:44:02;;;;;;;2.73;1.40;;;;;;;5.00;83.22;99413.22;5054208;28;20504;-76
2021/03/14 08:46:45;;;;;;;5.30;1.13;;;;;;;5.01;82.05;99441.91;5071528;28;20206;-75
2021/03/14 08:49:12;;;;;;;0.57;0.57;;;;;;;5.01;82.88;99428.38;5053980;28;20185;-76
2021/03/14 08:51:37;;;;;;;0.57;0.57;;;;;;;5.04;83.34;99427.75;5060006;28;20229;-77
2021/03/14 08:54:03;;;;;;;0.60;0.60;;;;;;;5.13;83.14;99437.91;5052213;28;20242;-77
2021/03/14 08:56:28;;;;;;;0.63;0.50;;;;;;;5.19;82.79;99442.91;5051402;28;20178;-77
2021/03/14 08:59:07;;;;;;;0.20;0.20;;;;;;;5.22;82.51;99436.91;5051918;28;20167;-78
2021/03/14 09:01:33;;;;;;;4.90;1.10;;;;;;;5.26;81.07;99442.53;5051865;28;20217;-77
2021/03/14 09:04:10;;;;;;;1.90;0.63;;;;;;;5.28;81.38;99441.13;5051658;28;20171;-76
2021/03/14 09:06:36;;;;;;;0.00;0.00;;;;;;;5.36;81.81;99447.75;5051333;28;20199;-77
2021/03/14 09:09:05;;;;;;;1.90;0.70;;;;;;;5.41;80.78;99444.13;5051515;28;20173;-77
2021/03/14 09:11:58;;;;;;;1.07;1.07;;;;;;;5.40;81.50;99443.34;5051514;28;20198;-75
2021/03/14 09:14:23;;;;;;;0.67;0.47;;;;;;;5.35;81.28;99448.81;5049579;28;20690;-77
2021/03/14 09:16:50;;;;;;;0.17;0.00;;;;;;;5.38;81.60;99453.66;5051154;28;20206;-78
2021/03/14 09:19:24;;;;;;;1.23;1.17;;;;;;;5.42;81.73;99473.63;5051349;28;20646;-76
2021/03/14 09:21:54;;;;;;;0.50;0.50;;;;;;;5.31;82.01;99464.88;5051293;28;20305;-77
2021/03/14 09:24:27;;;;;;;0.43;0.43;;;;;;;5.33;81.92;99454.56;5051305;28;20232;-76
2021/03/14 09:26:55;;;;;;;1.13;1.03;;;;;;;5.36;81.89;99493.78;5050999;28;20286;-77
2021/03/14 09:29:53;;;;;;;0.87;0.87;;;;;;;5.42;81.21;99473.63;5051102;28;20215;-77
2021/03/14 09:32:28;;;;;;;1.30;1.30;;;;;;;5.64;81.29;99481.03;5028033;28;20270;-77
2021/03/14 09:35:18;;;;;;;0.30;0.30;;;;;;;5.60;80.09;99496.28;5051221;28;20251;-75
2021/03/14 09:37:55;;;;;;;0.20;0.20;;;;;;;5.61;80.16;99493.28;5050169;28;20179;-77
2021/03/14 09:40:43;;;;;;;1.13;0.43;;;;;;;5.61;80.05;99492.47;5050879;28;20189;-76
2021/03/14 09:43:08;;;;;;;0.40;0.40;;;;;;;5.58;80.36;99509.34;5051169;28;20202;-76
2021/03/14 09:45:36;;;;;;;0.30;0.30;;;;;;;5.53;79.43;99498.63;5050948;28;20195;-77
2021/03/14 09:48:08;;;;;;;0.73;0.73;;;;;;;5.61;79.25;99514.94;5050740;28;20194;-76
2021/03/14 09:50:37;;;;;;;2.07;1.97;;;;;;;5.62;79.08;99497.59;5054106;28;20668;-77
2021/03/14 09:53:04;;;;;;;0.40;0.40;;;;;;;5.62;78.11;99508.41;5070915;28;20204;-76
2021/03/14 09:55:36;;;;;;;0.20;0.20;;;;;;;5.73;78.96;99503.59;5070934;28;20170;-76
2021/03/14 09:58:03;;;;;;;0.30;0.20;;;;;;;5.85;78.57;99514.75;5070509;28;20504;-76
2021/03/14 10:00:32;;;;;;;0.17;0.10;;;;;;;5.91;78.20;99518.19;5071112;28;20185;-76
2021/03/14 10:03:00;;;;;;;0.33;0.33;;;;;;;6.07;78.23;99526.78;5070574;28;20261;-76
2021/03/14 10:05:25;;;;;;;0.40;0.40;;;;;;;6.18;77.94;99523.56;5070639;28;20696;-76
2021/03/14 10:07:53;;;;;;;0.57;0.57;;;;;;;6.23;76.70;99525.38;5070362;28;20170;-76
2021/03/14 10:10:19;;;;;;;0.20;0.20;;;;;;;6.37;77.11;99525.34;5070455;28;20638;-77
2021/03/14 10:12:45;;;;;;;0.20;0.20;;;;;;;6.40;75.92;99536.38;5070691;28;20176;-74
2021/03/14 10:15:15;;;;;;;0.20;0.20;;;;;;;6.57;75.50;99533.00;5070659;28;20190;-76
2021/03/14 10:17:41;;;;;;;0.27;0.27;;;;;;;6.55;74.27;99543.38;5070200;28;20166;-76
2021/03/14 10:20:07;;;;;;;0.07;0.07;;;;;;;6.65;75.23;99539.59;5070718;28;20173;-76
2021/03/14 10:22:33;;;;;;;0.20;0.20;;;;;;;6.53;74.54;99534.72;5070420;28;20210;-77
2021/03/14 10:24:59;;;;;;;0.63;0.53;;;;;;;6.54;75.41;99536.34;5070558;28;20643;-76
2021/03/14 10:27:26;;;;;;;0.20;0.20;;;;;;;6.49;74.93;99547.28;5070069;28;20224;-74
2021/03/14 10:29:57;;;;;;;0.70;0.70;;;;;;;6.48;75.05;99549.19;5070169;28;20179;-75
2021/03/14 10:32:26;;;;;;;0.10;0.10;;;;;;;6.49;73.62;99556.22;5061576;28;20180;-75
2021/03/14 10:34:59;;;;;;;0.53;0.33;;;;;;;6.59;74.51;99559.81;5070038;28;20181;-74
2021/03/14 10:37:26;;;;;;;1.37;0.17;;;;;;;6.65;74.43;99559.38;5069864;28;20257;-75
2021/03/14 10:39:59;;;;;;;0.40;0.40;;;;;;;6.74;73.13;99563.00;5061184;28;20726;-74
2021/03/14 10:42:32;;;;;;;0.67;0.67;;;;;;;6.65;70.41;99555.88;5054341;28;20262;-74
2021/03/14 10:45:15;;;;;;;0.37;0.37;;;;;;;6.66;71.58;99562.94;5054152;28;20186;-74
2021/03/14 10:47:42;;;;;;;0.53;0.53;;;;;;;6.77;72.12;99565.06;5053846;28;20242;-73
2021/03/14 10:50:16;;;;;;;0.37;0.37;;;;;;;6.71;72.25;99562.81;5054356;28;20183;-72
2021/03/14 10:52:41;;;;;;;10.73;0.53;;;;;;;6.78;71.53;99561.25;5054179;28;20182;-72
2021/03/14 10:55:30;;;;;;;0.53;0.37;;;;;;;6.57;70.90;99574.50;5038085;28;20179;-73
2021/03/14 10:58:07;;;;;;;0.10;0.10;;;;;;;6.70;72.42;99562.00;5053856;28;20507;-72
2021/03/14 11:00:34;;;;;;;2.83;1.80;;;;;;;6.64;72.54;99587.63;5053961;28;20174;-72
2021/03/14 11:03:00;;;;;;;1.00;0.93;;;;;;;6.42;71.58;99588.41;5054042;28;20578;-72
2021/03/14 11:05:26;;;;;;;0.27;0.27;;;;;;;6.29;73.02;99581.09;5053717;28;20340;-73
2021/03/14 11:08:01;;;;;;;4.83;0.40;;;;;;;6.25;72.55;99596.38;5053551;28;20199;-73
2021/03/14 11:10:27;;;;;;;2.83;1.17;;;;;;;6.24;72.89;99598.28;5053603;28;20175;-73
2021/03/14 11:12:52;;;;;;;0.90;0.70;;;;;;;6.30;73.70;99590.84;5053741;28;20504;-74
2021/03/14 11:15:25;;;;;;;0.20;0.20;;;;;;;6.26;73.28;99598.78;5053749;28;20168;-72
2021/03/14 11:17:52;;;;;;;2.00;1.57;;;;;;;6.33;72.10;99598.38;5053378;28;20399;-72
2021/03/14 11:20:19;;;;;;;0.27;0.20;;;;;;;6.34;72.94;99602.69;5053448;28;20179;-72
2021/03/14 11:22:48;;;;;;;0.40;0.40;;;;;;;6.43;72.14;99602.78;5053606;28;20175;-72
2021/03/14 11:25:13;;;;;;;0.90;0.47;;;;;;;6.51;72.03;99602.06;5053840;28;20183;-73
2021/03/14 11:27:39;;;;;;;19.13;1.30;;;;;;;6.50;70.81;99597.72;5053275;28;20673;-72
2021/03/14 11:30:05;;;;;;;0.30;0.30;;;;;;;6.61;71.40;99590.97;5053258;28;20634;-73
2021/03/14 11:32:31;;;;;;;0.87;0.50;;;;;;;6.79;71.08;99597.34;5053215;28;20175;-72
2021/03/14 11:34:56;;;;;;;0.20;0.20;;;;;;;6.74;71.63;99597.47;5053260;28;20183;-72
2021/03/14 11:37:22;;;;;;;0.33;0.33;;;;;;;6.77;70.47;99605.00;5052941;28;20179;-72
2021/03/14 11:39:47;;;;;;;0.40;0.40;;;;;;;6.85;69.37;99605.06;5052527;28;20215;-72
2021/03/14 11:42:12;;;;;;;0.10;0.10;;;;;;;6.88;69.26;99608.28;5053267;28;20915;-73
2021/03/14 11:44:39;;;;;;;0.40;0.40;;;;;;;6.66;69.65;99617.22;5053219;28;20177;-72
2021/03/14 11:47:05;;;;;;;1.03;0.50;;;;;;;6.72;70.99;99613.28;5052708;28;20202;-73